createdAt,value
2019-05-11T00:01:02.646Z,60.80
2019-05-11T00:03:32.581Z,64.62
2019-05-11T00:06:02.562Z,67.87
2019-05-11T00:08:32.527Z,67.17
2019-05-11T00:11:02.213Z,61.88
2019-05-11T00:13:32.877Z,60.78
2019-05-11T00:16:02.951Z,61.45
2019-05-11T00:18:32.944Z,64.12
2019-05-11T00:21:02.902Z,56.50
2019-05-11T00:23:32.849Z,59.10
2019-05-11T00:26:03.031Z,63.13
2019-05-11T00:28:33.078Z,60.45
2019-05-11T00:31:03.018Z,53.87
2019-05-11T00:33:33.119Z,57.25
2019-05-11T00:36:03.073Z,57.73
2019-05-11T00:38:33.024Z,60.80
2019-05-11T00:41:02.989Z,57.13
2019-05-11T00:43:33.163Z,52.58
2019-05-11T00:46:03.193Z,56.10
2019-05-11T00:48:33.275Z,55.12
2019-05-11T00:51:03.298Z,51.18
2019-05-11T00:53:33.503Z,51.58
2019-05-11T00:56:03.596Z,49.50
2019-05-11T00:58:33.521Z,51.48
2019-05-11T01:01:03.557Z,47.38
2019-05-11T01:03:33.517Z,49.55
2019-05-11T01:06:03.501Z,50.55
2019-05-11T01:08:33.467Z,52.03
2019-05-11T01:11:03.468Z,49.70
2019-05-11T01:13:33.484Z,52.45
2019-05-11T01:16:03.523Z,53.35
2019-05-11T01:18:33.531Z,53.52
2019-05-11T01:21:03.537Z,52.20
2019-05-11T01:23:33.247Z,50.90
2019-05-11T01:26:03.159Z,52.93
2019-05-11T01:28:33.186Z,50.65
2019-05-11T01:31:03.203Z,50.70
2019-05-11T01:33:33.181Z,48.65
2019-05-11T01:36:03.253Z,44.18
2019-05-11T01:38:33.207Z,40.10
2019-05-11T01:41:03.133Z,41.98
2019-05-11T01:43:33.100Z,40.50
2019-05-11T01:46:03.039Z,41.42
2019-05-11T01:48:33.055Z,37.20
2019-05-11T01:51:03.015Z,42.80
2019-05-11T01:53:32.968Z,38.80
2019-05-11T01:56:03.068Z,39.10
2019-05-11T01:58:33.107Z,36.33
2019-05-11T02:01:03.051Z,40.73
2019-05-11T02:03:34.054Z,33.65
2019-05-11T02:06:04.164Z,36.08
2019-05-11T02:08:34.227Z,37.33
2019-05-11T02:11:15.501Z,34.73
2019-05-11T02:13:36.091Z,41.53
2019-05-11T02:16:06.069Z,41.15
2019-05-11T02:18:36.156Z,38.58
2019-05-11T02:21:06.182Z,39.73
2019-05-11T02:23:36.230Z,34.70
2019-05-11T02:26:06.247Z,34.23
2019-05-11T02:28:36.324Z,34.60
2019-05-11T02:31:06.302Z,34.67
2019-05-11T02:33:36.252Z,36.63
2019-05-11T02:36:06.191Z,34.18
2019-05-11T02:38:36.254Z,39.55
2019-05-11T02:41:06.374Z,40.50
2019-05-11T02:43:36.411Z,35.33
2019-05-11T02:46:06.427Z,36.55
2019-05-11T02:48:36.404Z,34.00
2019-05-11T02:51:07.318Z,36.33
2019-05-11T02:53:37.726Z,36.30
2019-05-11T02:56:07.711Z,35.63
2019-05-11T02:58:37.698Z,35.65
2019-05-11T03:01:07.643Z,33.48
2019-05-11T03:03:37.976Z,33.92
2019-05-11T03:06:07.927Z,33.38
2019-05-11T03:08:37.913Z,34.60
2019-05-11T03:11:07.917Z,35.63
2019-05-11T03:13:37.975Z,33.67
2019-05-11T03:16:08.040Z,30.72
2019-05-11T03:18:38.060Z,35.75
2019-05-11T03:21:08.111Z,32.13
2019-05-11T03:23:38.073Z,31.87
2019-05-11T03:26:08.123Z,30.80
2019-05-11T03:28:38.150Z,31.68
2019-05-11T03:31:08.204Z,32.03
2019-05-11T03:33:38.205Z,31.82
2019-05-11T03:36:08.299Z,34.75
2019-05-11T03:38:38.336Z,30.75
2019-05-11T03:41:08.352Z,32.58
2019-05-11T03:43:38.487Z,30.68
2019-05-11T03:46:08.525Z,34.15
2019-05-11T03:48:38.568Z,32.17
2019-05-11T03:51:08.521Z,30.48
2019-05-11T03:53:39.540Z,33.95
2019-05-11T03:56:09.641Z,32.80
2019-05-11T03:58:40.022Z,33.63
2019-05-11T04:01:09.979Z,33.63
2019-05-11T04:03:40.005Z,31.37
2019-05-11T04:06:10.096Z,30.57
2019-05-11T04:08:40.159Z,30.27
2019-05-11T04:11:10.184Z,34.27
2019-05-11T04:13:40.264Z,31.23
2019-05-11T04:16:10.371Z,31.50
2019-05-11T04:18:40.402Z,26.95
2019-05-11T04:21:10.422Z,27.48
2019-05-11T04:23:40.643Z,30.10
2019-05-11T04:26:10.717Z,32.00
2019-05-11T04:28:40.744Z,28.98
2019-05-11T04:31:10.774Z,28.50
2019-05-11T04:33:40.787Z,27.73
2019-05-11T04:36:10.767Z,26.20
2019-05-11T04:38:40.791Z,29.12
2019-05-11T04:41:10.937Z,30.60
2019-05-11T04:43:41.040Z,26.70
2019-05-11T04:46:13.809Z,29.30
2019-05-11T04:48:43.738Z,25.12
2019-05-11T04:51:13.799Z,25.52
2019-05-11T04:53:43.832Z,24.80
2019-05-11T04:56:14.800Z,25.23
2019-05-11T04:58:44.761Z,27.93
2019-05-11T05:01:14.799Z,27.10
2019-05-11T05:03:47.517Z,28.73
2019-05-11T05:06:24.472Z,25.02
2019-05-11T05:08:48.172Z,26.07
2019-05-11T05:11:18.184Z,26.30
2019-05-11T05:13:48.184Z,27.40
2019-05-11T05:16:18.150Z,27.52
2019-05-11T05:18:48.574Z,28.35
2019-05-11T05:21:18.611Z,26.73
2019-05-11T05:23:48.567Z,27.58
2019-05-11T05:26:18.535Z,26.77
2019-05-11T05:28:48.520Z,24.98
2019-05-11T05:31:18.575Z,29.40
2019-05-11T05:33:48.584Z,28.85
2019-05-11T05:36:18.650Z,22.25
2019-05-11T05:38:48.634Z,23.90
2019-05-11T05:41:19.004Z,25.48
2019-05-11T05:43:49.097Z,24.40
2019-05-11T05:46:19.157Z,27.25
2019-05-11T05:48:49.186Z,22.15
2019-05-11T05:51:19.251Z,28.38
2019-05-11T05:53:49.248Z,23.67
2019-05-11T05:56:19.207Z,22.48
2019-05-11T05:58:49.257Z,22.02
2019-05-11T06:01:19.247Z,18.80
2019-05-11T06:03:49.298Z,20.50
2019-05-11T06:06:19.323Z,16.62
2019-05-11T06:08:49.376Z,15.95
2019-05-11T06:11:19.463Z,14.75
2019-05-11T06:13:49.622Z,18.27
2019-05-11T06:16:19.655Z,17.02
2019-05-11T06:18:49.624Z,16.82
2019-05-11T06:21:19.559Z,19.40
2019-05-11T06:23:51.629Z,17.95
2019-05-11T06:26:21.996Z,18.40
2019-05-11T06:28:51.951Z,21.48
2019-05-11T06:31:21.913Z,18.45
2019-05-11T06:33:52.293Z,14.28
2019-05-11T06:36:22.338Z,15.53
2019-05-11T06:38:52.389Z,14.23
2019-05-11T06:41:22.508Z,14.18
2019-05-11T06:44:01.209Z,11.38
2019-05-11T06:46:24.187Z,15.48
2019-05-11T06:48:55.241Z,13.13
2019-05-11T06:51:25.300Z,13.03
2019-05-11T06:53:55.284Z,14.28
2019-05-11T06:56:25.238Z,17.25
2019-05-11T06:58:55.250Z,14.58
2019-05-11T07:01:25.285Z,14.25
2019-05-11T07:03:55.303Z,16.17
2019-05-11T07:06:28.361Z,13.75
2019-05-11T07:08:57.112Z,18.02
2019-05-11T07:11:27.094Z,12.18
2019-05-11T07:13:57.116Z,11.95
2019-05-11T07:16:29.026Z,11.95
2019-05-11T07:18:59.045Z,15.28
2019-05-11T07:21:29.074Z,12.80
2019-05-11T07:23:59.105Z,10.23
2019-05-11T07:26:29.414Z,12.23
2019-05-11T07:28:59.369Z,9.95
2019-05-11T07:31:30.510Z,9.60
2019-05-11T07:34:01.437Z,10.05
2019-05-11T07:36:31.592Z,8.58
2019-05-11T07:39:01.520Z,8.85
2019-05-11T07:41:31.550Z,32.53
2019-05-11T07:44:01.503Z,9.50
2019-05-11T07:46:31.536Z,10.25
2019-05-11T07:49:01.546Z,9.70
2019-05-11T07:51:31.727Z,9.40
2019-05-11T07:54:01.782Z,12.10
2019-05-11T07:56:31.782Z,10.80
2019-05-11T07:59:01.711Z,16.65
2019-05-11T08:01:31.648Z,10.25
2019-05-11T08:04:01.602Z,11.57
2019-05-11T08:06:31.603Z,10.60
2019-05-11T08:09:01.653Z,13.83
2019-05-11T08:11:32.744Z,15.95
2019-05-11T08:14:02.961Z,10.55
2019-05-11T08:16:32.985Z,11.03
2019-05-11T08:19:06.800Z,11.45
2019-05-11T08:21:34.632Z,6.85
2019-05-11T08:24:05.117Z,12.95
2019-05-11T08:26:35.183Z,9.28
2019-05-11T08:29:05.134Z,9.43
2019-05-11T08:31:35.110Z,6.67
2019-05-11T08:34:05.145Z,7.22
2019-05-11T08:36:35.127Z,8.45
2019-05-11T08:39:07.757Z,6.42
2019-05-11T08:41:38.428Z,8.80
2019-05-11T08:44:09.060Z,7.10
2019-05-11T08:46:40.104Z,4.53
2019-05-11T08:49:10.302Z,6.03
2019-05-11T08:51:40.223Z,5.55
2019-05-11T08:54:10.197Z,4.62
2019-05-11T08:56:40.115Z,7.12
2019-05-11T08:59:10.136Z,5.97
2019-05-11T09:01:41.094Z,6.92
2019-05-11T09:04:11.114Z,7.05
2019-05-11T09:06:41.106Z,5.30
2019-05-11T09:09:13.174Z,7.08
2019-05-11T09:11:43.002Z,4.17
2019-05-11T09:14:13.121Z,6.90
2019-05-11T09:16:43.198Z,3.40
2019-05-11T09:19:13.141Z,3.55
2019-05-11T09:21:43.113Z,7.40
2019-05-11T09:24:13.108Z,3.80
2019-05-11T09:26:43.056Z,3.87
2019-05-11T09:29:12.955Z,4.17
2019-05-11T09:31:42.917Z,7.05
2019-05-11T09:34:12.531Z,3.97
2019-05-11T09:36:42.530Z,5.00
2019-05-11T09:39:14.197Z,6.22
2019-05-11T09:41:44.111Z,4.30
2019-05-11T09:44:14.036Z,3.65
2019-05-11T09:46:44.029Z,40.75
2019-05-11T09:49:14.081Z,2.98
2019-05-11T09:51:44.413Z,4.35
2019-05-11T09:54:14.438Z,3.25
2019-05-11T09:56:44.506Z,4.85
2019-05-11T09:59:14.412Z,5.55
2019-05-11T10:01:44.357Z,3.22
2019-05-11T10:04:14.462Z,3.37
2019-05-11T10:06:44.355Z,7.05
2019-05-11T10:09:14.327Z,5.90
2019-05-11T10:11:44.364Z,13.10
2019-05-11T10:14:14.274Z,3.77
2019-05-11T10:16:46.139Z,3.37
2019-05-11T10:19:17.798Z,3.97
2019-05-11T10:21:48.677Z,3.55
2019-05-11T10:24:18.677Z,3.50
2019-05-11T10:26:48.843Z,1.65
2019-05-11T10:29:18.970Z,4.47
2019-05-11T10:31:48.647Z,4.23
2019-05-11T10:34:18.589Z,3.10
2019-05-11T10:36:48.754Z,3.93
2019-05-11T10:39:18.896Z,1.27
2019-05-11T10:41:48.698Z,3.80
2019-05-11T10:44:20.030Z,1.70
2019-05-11T10:46:49.709Z,1.67
2019-05-11T10:49:19.391Z,4.43
2019-05-11T10:51:49.015Z,1.93
2019-05-11T10:54:18.928Z,4.97
2019-05-11T10:56:48.605Z,2.47
2019-05-11T10:59:18.771Z,3.40
2019-05-11T11:01:48.803Z,1.57
2019-05-11T11:04:20.134Z,1.90
2019-05-11T11:06:49.773Z,3.80
2019-05-11T11:09:19.637Z,2.47
2019-05-11T11:11:49.373Z,2.17
2019-05-11T11:14:19.071Z,3.70
2019-05-11T11:16:48.845Z,2.20
2019-05-11T11:19:20.114Z,4.60
2019-05-11T11:21:49.849Z,1.50
2019-05-11T11:24:19.604Z,3.77
2019-05-11T11:26:49.286Z,2.73
2019-05-11T11:29:18.933Z,3.50
2019-05-11T11:31:48.562Z,3.97
2019-05-11T11:34:18.961Z,2.43
2019-05-11T11:36:48.780Z,3.33
2019-05-11T11:39:18.823Z,1.57
2019-05-11T11:41:48.729Z,1.70
2019-05-11T11:44:18.634Z,1.87
2019-05-11T11:46:54.579Z,1.97
2019-05-11T11:49:19.784Z,1.53
2019-05-11T11:51:49.551Z,2.20
2019-05-11T11:54:19.192Z,1.07
2019-05-11T11:56:49.030Z,3.27
2019-05-11T11:59:21.656Z,1.90
2019-05-11T12:01:51.347Z,2.40
2019-05-11T12:04:21.051Z,2.37
2019-05-11T12:06:50.753Z,2.53
2019-05-11T12:09:20.469Z,1.30
2019-05-11T12:11:52.502Z,1.53
2019-05-11T12:14:22.193Z,3.77
2019-05-11T12:17:06.764Z,2.73
2019-05-11T12:19:24.030Z,2.63
2019-05-11T12:21:53.663Z,1.03
2019-05-11T12:24:23.305Z,1.63
2019-05-11T12:26:52.999Z,0.80
2019-05-11T12:29:22.702Z,0.57
2019-05-11T12:31:52.369Z,1.70
2019-05-11T12:34:22.987Z,2.70
2019-05-11T12:36:52.631Z,1.40
2019-05-11T12:39:22.261Z,3.00
2019-05-11T12:41:52.899Z,1.47
2019-05-11T12:44:22.658Z,2.00
2019-05-11T12:46:52.290Z,2.63
2019-05-11T12:49:21.958Z,1.63
2019-05-11T12:51:51.665Z,1.20
2019-05-11T12:54:21.299Z,0.73
2019-05-11T12:56:50.959Z,1.17
2019-05-11T12:59:20.618Z,2.07
2019-05-11T13:01:50.336Z,0.93
2019-05-11T13:04:20.208Z,0.60
2019-05-11T13:06:49.937Z,0.93
2019-05-11T13:09:19.635Z,2.07
2019-05-11T13:11:49.262Z,4.70
2019-05-11T13:14:18.920Z,3.17
2019-05-11T13:16:48.599Z,0.60
2019-05-11T13:19:20.692Z,3.07
2019-05-11T13:21:50.455Z,1.13
2019-05-11T13:24:20.099Z,0.50
2019-05-11T13:26:49.760Z,1.83
2019-05-11T13:29:19.384Z,0.80
2019-05-11T13:31:49.028Z,0.60
2019-05-11T13:34:18.728Z,0.60
2019-05-11T13:36:49.055Z,2.20
2019-05-11T13:39:20.224Z,3.90
2019-05-11T13:41:49.866Z,1.93
2019-05-11T13:44:19.531Z,1.00
2019-05-11T13:46:49.208Z,0.90
2019-05-11T13:49:19.132Z,0.90
2019-05-11T13:51:48.776Z,1.10
2019-05-11T13:54:18.705Z,1.47
2019-05-11T13:56:48.572Z,1.43
2019-05-11T13:59:18.905Z,0.80
2019-05-11T14:01:48.720Z,0.90
2019-05-11T14:04:18.599Z,1.43
2019-05-11T14:06:49.386Z,1.60
2019-05-11T14:09:20.023Z,2.73
2019-05-11T14:11:49.714Z,1.87
2019-05-11T14:14:19.427Z,2.13
2019-05-11T14:16:49.272Z,2.47
2019-05-11T14:19:18.942Z,2.67
2019-05-11T14:21:49.075Z,0.83
2019-05-11T14:24:18.853Z,1.03
2019-05-11T14:26:48.986Z,1.33
2019-05-11T14:29:18.788Z,0.80
2019-05-11T14:31:49.460Z,1.60
2019-05-11T14:34:19.199Z,2.70
2019-05-11T14:36:48.912Z,2.73
2019-05-11T14:39:19.116Z,0.83
2019-05-11T14:41:48.931Z,2.23
2019-05-11T14:44:18.677Z,2.03
2019-05-11T14:46:48.403Z,2.20
2019-05-11T14:49:18.515Z,2.40
2019-05-11T14:51:48.711Z,4.67
2019-05-11T14:54:18.891Z,2.17
2019-05-11T14:56:48.776Z,3.73
2019-05-11T14:59:18.631Z,4.10
2019-05-11T15:01:49.008Z,2.87
2019-05-11T15:04:19.586Z,1.67
2019-05-11T15:06:49.308Z,3.27
2019-05-11T15:09:19.004Z,2.07
2019-05-11T15:11:48.693Z,2.60
2019-05-11T15:14:21.488Z,2.87
2019-05-11T15:16:49.930Z,4.73
2019-05-11T15:19:19.625Z,4.90
2019-05-11T15:21:49.336Z,3.90
2019-05-11T15:24:19.523Z,4.47
2019-05-11T15:26:49.222Z,3.40
2019-05-11T15:29:21.840Z,3.33
2019-05-11T15:31:51.486Z,3.27
2019-05-11T15:34:20.994Z,5.17
2019-05-11T15:36:50.515Z,5.70
2019-05-11T15:39:19.827Z,2.27
2019-05-11T15:41:49.470Z,3.77
2019-05-11T15:44:19.103Z,3.87
2019-05-11T15:46:48.743Z,4.23
2019-05-11T15:49:18.400Z,4.00
2019-05-11T15:51:49.083Z,3.83
2019-05-11T15:54:18.816Z,4.80
2019-05-11T15:56:48.555Z,4.43
2019-05-11T15:59:18.193Z,3.77
2019-05-11T16:01:48.883Z,6.63
2019-05-11T16:04:18.631Z,4.77
2019-05-11T16:06:48.363Z,4.77
2019-05-11T16:09:18.534Z,6.93
2019-05-11T16:11:48.333Z,4.57
2019-05-11T16:14:17.984Z,3.30
2019-05-11T16:16:48.135Z,2.80
2019-05-11T16:19:19.244Z,2.57
2019-05-11T16:21:49.067Z,5.10
2019-05-11T16:24:18.677Z,3.57
2019-05-11T16:26:49.636Z,4.03
2019-05-11T16:29:19.390Z,4.50
2019-05-11T16:31:48.774Z,4.30
2019-05-11T16:34:18.498Z,2.33
2019-05-11T16:36:48.310Z,3.27
2019-05-11T16:39:18.639Z,2.80
2019-05-11T16:41:48.783Z,3.47
2019-05-11T16:44:18.667Z,3.73
2019-05-11T16:46:50.968Z,4.27
2019-05-11T16:49:28.573Z,2.13
2019-05-11T16:51:54.180Z,2.07
2019-05-11T16:54:23.806Z,4.13
2019-05-11T16:56:53.531Z,4.30
2019-05-11T16:59:23.190Z,3.30
2019-05-11T17:01:52.830Z,3.70
2019-05-11T17:04:22.549Z,4.83
2019-05-11T17:06:52.194Z,3.47
2019-05-11T17:09:21.970Z,4.87
2019-05-11T17:11:51.575Z,3.67
2019-05-11T17:14:21.239Z,6.67
2019-05-11T17:16:50.906Z,4.13
2019-05-11T17:19:20.538Z,4.80
2019-05-11T17:21:50.196Z,6.53
2019-05-11T17:24:19.820Z,8.40
2019-05-11T17:26:49.441Z,4.60
2019-05-11T17:29:21.967Z,4.33
2019-05-11T17:31:51.616Z,5.43
2019-05-11T17:34:21.266Z,5.23
2019-05-11T17:36:51.002Z,8.10
2019-05-11T17:39:20.945Z,6.60
2019-05-11T17:41:50.754Z,5.03
2019-05-11T17:44:20.704Z,12.33
2019-05-11T17:46:50.685Z,9.50
2019-05-11T17:49:20.496Z,7.17
2019-05-11T17:51:52.024Z,8.90
2019-05-11T17:54:21.489Z,8.00
2019-05-11T17:56:51.242Z,7.77
2019-05-11T17:59:21.273Z,6.22
2019-05-11T18:01:54.017Z,7.55
2019-05-11T18:04:25.754Z,12.93
2019-05-11T18:06:55.911Z,11.15
2019-05-11T18:09:25.957Z,7.78
2019-05-11T18:11:55.899Z,6.15
2019-05-11T18:14:28.041Z,11.70
2019-05-11T18:16:58.987Z,10.90
2019-05-11T18:19:29.155Z,11.63
2019-05-11T18:21:59.442Z,16.70
2019-05-11T18:24:29.495Z,15.08
2019-05-11T18:26:59.674Z,13.68
2019-05-11T18:29:29.889Z,15.70
2019-05-11T18:31:59.857Z,11.97
2019-05-11T18:34:29.927Z,11.12
2019-05-11T18:36:59.944Z,14.80
2019-05-11T18:39:30.938Z,16.65
2019-05-11T18:42:01.135Z,12.55
2019-05-11T18:44:31.153Z,11.73
2019-05-11T18:47:01.157Z,11.97
2019-05-11T18:49:31.185Z,14.87
2019-05-11T18:52:01.230Z,16.87
2019-05-11T18:54:31.197Z,13.62
2019-05-11T18:57:01.160Z,15.65
2019-05-11T18:59:31.272Z,22.37
2019-05-11T19:02:01.317Z,17.25
2019-05-11T19:04:31.353Z,19.60
2019-05-11T19:07:13.013Z,22.37
2019-05-11T19:09:32.963Z,20.92
2019-05-11T19:12:02.944Z,21.57
2019-05-11T19:14:32.959Z,21.90
2019-05-11T19:17:02.946Z,22.65
2019-05-11T19:19:32.998Z,18.95
2019-05-11T19:22:03.224Z,15.83
2019-05-11T19:24:33.237Z,29.23
2019-05-11T19:27:03.306Z,18.62
2019-05-11T19:29:33.308Z,15.93
2019-05-11T19:32:03.258Z,18.23
2019-05-11T19:34:33.234Z,12.95
2019-05-11T19:37:03.177Z,12.50
2019-05-11T19:39:33.213Z,15.30
2019-05-11T19:42:03.280Z,18.92
2019-05-11T19:44:33.305Z,17.00
2019-05-11T19:47:03.423Z,19.57
2019-05-11T19:49:34.379Z,16.35
2019-05-11T19:52:04.402Z,16.85
2019-05-11T19:54:34.566Z,12.40
2019-05-11T19:57:04.568Z,14.85
2019-05-11T19:59:34.742Z,14.33
2019-05-11T20:02:05.002Z,14.93
2019-05-11T20:04:35.058Z,17.17
2019-05-11T20:07:05.063Z,16.62
2019-05-11T20:09:35.289Z,18.05
2019-05-11T20:12:05.518Z,18.67
2019-05-11T20:14:37.801Z,14.35
2019-05-11T20:17:08.981Z,15.53
2019-05-11T20:19:39.062Z,16.75
2019-05-11T20:22:09.213Z,21.65
2019-05-11T20:24:39.146Z,16.02
2019-05-11T20:27:09.267Z,45.60
2019-05-11T20:29:39.279Z,25.77
2019-05-11T20:32:09.485Z,25.27
2019-05-11T20:34:39.449Z,22.75
2019-05-11T20:37:10.714Z,25.80
2019-05-11T20:39:40.645Z,29.45
2019-05-11T20:42:10.664Z,25.60
2019-05-11T20:44:40.656Z,19.45
2019-05-11T20:47:10.706Z,26.75
2019-05-11T20:49:40.653Z,23.67
2019-05-11T20:52:10.690Z,28.32
2019-05-11T20:54:40.642Z,32.65
2019-05-11T20:57:10.778Z,21.15
2019-05-11T20:59:40.878Z,22.45
2019-05-11T21:02:10.931Z,20.37
2019-05-11T21:04:40.986Z,23.50
2019-05-11T21:07:11.075Z,19.40
2019-05-11T21:09:41.119Z,21.93
2019-05-11T21:12:11.356Z,20.88
2019-05-11T21:14:41.823Z,19.15
2019-05-11T21:17:12.067Z,21.73
2019-05-11T21:19:42.773Z,20.23
2019-05-11T21:22:13.118Z,18.15
2019-05-11T21:24:43.150Z,19.57
2019-05-11T21:27:13.630Z,23.02
2019-05-11T21:29:43.689Z,20.37
2019-05-11T21:32:13.951Z,19.10
2019-05-11T21:34:44.079Z,18.40
2019-05-11T21:37:14.090Z,18.82
2019-05-11T21:39:44.036Z,18.87
2019-05-11T21:42:14.098Z,17.35
2019-05-11T21:44:44.039Z,20.30
2019-05-11T21:47:14.063Z,19.73
2019-05-11T21:49:44.057Z,17.85
2019-05-11T21:52:14.099Z,23.25
2019-05-11T21:54:44.062Z,21.10
2019-05-11T21:57:14.971Z,21.65
2019-05-11T21:59:44.935Z,23.62
2019-05-11T22:02:14.871Z,22.30
2019-05-11T22:04:44.864Z,16.93
2019-05-11T22:07:14.885Z,20.60
2019-05-11T22:09:44.864Z,26.73
2019-05-11T22:12:15.794Z,17.67
2019-05-11T22:14:48.806Z,17.57
2019-05-11T22:17:18.386Z,17.17
2019-05-11T22:19:48.424Z,17.75
2019-05-11T22:22:24.388Z,19.87
2019-05-11T22:24:50.068Z,18.90
2019-05-11T22:27:20.076Z,18.87
2019-05-11T22:29:50.033Z,21.80
2019-05-11T22:32:20.100Z,21.27
2019-05-11T22:34:50.167Z,23.40
2019-05-11T22:37:20.123Z,22.30
2019-05-11T22:39:50.242Z,21.15
2019-05-11T22:42:20.275Z,20.00
2019-05-11T22:44:50.281Z,18.82
2019-05-11T22:47:20.297Z,21.23
2019-05-11T22:49:50.345Z,19.10
2019-05-11T22:52:32.989Z,20.23
2019-05-11T22:54:53.052Z,19.80
2019-05-11T22:57:23.004Z,19.30
2019-05-11T22:59:53.015Z,22.32
2019-05-11T23:02:23.038Z,20.95
2019-05-11T23:04:52.993Z,21.42
2019-05-11T23:07:23.029Z,26.40
2019-05-11T23:09:52.997Z,21.33
2019-05-11T23:12:23.035Z,18.62
2019-05-11T23:15:03.724Z,19.82
2019-05-11T23:17:33.707Z,20.95
2019-05-11T23:20:05.556Z,25.45
2019-05-11T23:22:53.378Z,26.10
2019-05-11T23:25:08.827Z,19.17
2019-05-11T23:27:39.589Z,18.15
2019-05-11T23:30:09.702Z,18.70
2019-05-11T23:32:39.751Z,19.57
2019-05-11T23:35:09.836Z,16.93
2019-05-11T23:37:42.532Z,17.15
2019-05-11T23:40:12.282Z,20.23
2019-05-11T23:42:42.415Z,17.80
2019-05-11T23:45:12.564Z,17.37
2019-05-11T23:47:42.565Z,19.32
2019-05-11T23:50:13.773Z,19.67
2019-05-11T23:52:44.695Z,17.05
2019-05-11T23:55:14.891Z,15.68
2019-05-11T23:57:48.036Z,17.27
